Time;durP1;ratioP1;P1;durP2;ratioP2;P2;SDS_P1;SDS_P2;PMS_P1;PMS_P2;Temp;Humidity;BMP_temperature;BMP_pressure;BME280_temperature;BME280_humidity;BME280_pressure;Samples;Min_cycle;Max_cycle;Signal;HPM_P1;HPM_P2
2023/10/13 00:00:41;;;;;;;1.50;1.30;;;;;;;18.10;52.20;98010.72;105463;1257;60524;-38
2023/10/13 00:03:14;;;;;;;1.10;1.00;;;;;;;18.09;52.20;98009.70;105453;1258;73809;-38
2023/10/13 00:05:42;;;;;;;1.80;1.20;;;;;;;18.09;52.18;98010.15;105487;1262;66950;-38
2023/10/13 00:08:09;;;;;;;2.10;1.40;;;;;;;18.09;52.25;98015.13;105238;1258;72752;-38
2023/10/13 00:10:36;;;;;;;1.40;1.10;;;;;;;18.09;52.24;98020.92;105235;1261;60544;-38
2023/10/13 00:13:11;;;;;;;1.70;1.20;;;;;;;18.09;52.25;98028.20;105338;1258;60561;-38
2023/10/13 00:15:58;;;;;;;1.80;1.00;;;;;;;18.09;52.18;98029.60;105524;1262;73534;-38
2023/10/13 00:18:27;;;;;;;2.40;1.60;;;;;;;18.09;52.21;98021.48;105458;1262;63796;-38
2023/10/13 00:20:56;;;;;;;1.40;1.10;;;;;;;18.09;52.22;98018.68;105225;1258;72561;-38
2023/10/13 00:23:26;;;;;;;1.20;1.10;;;;;;;18.09;52.16;98018.30;105278;1262;60495;-38
2023/10/13 00:25:59;;;;;;;2.20;1.30;;;;;;;18.09;52.16;98022.23;105415;1258;60483;-38
2023/10/13 00:28:26;;;;;;;2.20;1.50;;;;;;;18.09;52.13;98023.24;105144;1258;74639;-36
2023/10/13 00:31:00;;;;;;;1.40;1.10;;;;;;;18.09;52.17;98020.30;105089;1263;64345;-36
2023/10/13 00:33:27;;;;;;;1.20;1.10;;;;;;;18.09;52.15;98024.25;105271;1261;71429;-36
2023/10/13 00:35:57;;;;;;;1.60;1.10;;;;;;;18.08;52.13;98025.15;105487;1262;60405;-37
2023/10/13 00:38:24;;;;;;;1.80;1.10;;;;;;;18.08;52.15;98024.60;105571;1257;60763;-37
2023/10/13 00:40:54;;;;;;;2.00;1.40;;;;;;;18.09;52.12;98029.52;105422;1260;73668;-39
2023/10/13 00:46:33;;;;;;;3.60;1.10;;;;;;;18.09;52.08;98033.48;105397;1257;72536;-37
2023/10/13 00:48:51;;;;;;;2.50;1.10;;;;;;;18.08;52.11;98031.44;105559;1262;60470;-37
2023/10/13 00:51:22;;;;;;;3.30;1.40;;;;;;;18.08;52.12;98034.91;105538;1258;60535;-37
2023/10/13 00:53:50;;;;;;;1.70;1.20;;;;;;;18.08;52.11;98037.55;105559;1257;74073;-37
2023/10/13 00:56:21;;;;;;;1.50;1.10;;;;;;;18.08;52.11;98040.71;105555;1262;66156;-37
2023/10/13 00:58:52;;;;;;;1.80;1.20;;;;;;;18.08;52.13;98038.61;105537;1257;72342;-36
2023/10/13 01:01:28;;;;;;;1.50;1.30;;;;;;;18.08;52.12;98043.33;105539;1262;60582;-36
2023/10/13 01:03:55;;;;;;;1.90;1.10;;;;;;;18.07;52.15;98044.69;105491;1258;60440;-36
2023/10/13 01:06:25;;;;;;;2.30;1.00;;;;;;;18.07;52.06;98046.10;105515;1258;74304;-36
2023/10/13 01:09:11;;;;;;;2.00;1.00;;;;;;;18.07;52.14;98051.27;105563;1262;65820;-36
2023/10/13 01:11:39;;;;;;;1.80;1.40;;;;;;;18.07;52.14;98052.45;105932;1259;72670;-37
2023/10/13 01:14:06;;;;;;;1.70;1.20;;;;;;;18.07;52.09;98055.64;105358;1259;60556;-38
2023/10/13 01:16:32;;;;;;;1.40;1.10;;;;;;;18.07;52.12;98052.13;105241;1257;60555;-38
2023/10/13 01:19:00;;;;;;;2.10;1.10;;;;;;;18.07;52.05;98059.65;105459;1256;73687;-38
2023/10/13 01:21:27;;;;;;;1.80;1.40;;;;;;;18.07;52.14;98058.56;105430;1262;66208;-38
2023/10/13 01:23:54;;;;;;;1.60;1.20;;;;;;;18.07;52.07;98055.60;105626;1257;72487;-38
2023/10/13 01:26:27;;;;;;;4.10;1.00;;;;;;;18.08;52.05;98059.73;105356;1260;60554;-38
2023/10/13 01:28:59;;;;;;;1.70;1.20;;;;;;;18.07;52.00;98063.42;105270;1256;60359;-37
2023/10/13 01:31:29;;;;;;;2.60;1.50;;;;;;;18.06;52.08;98059.48;105501;1262;73624;-37
2023/10/13 01:34:00;;;;;;;1.60;1.20;;;;;;;18.06;52.01;98059.92;105536;1260;65155;-37
2023/10/13 01:36:28;;;;;;;1.80;1.30;;;;;;;18.06;52.04;98059.55;105817;1256;71394;-36
2023/10/13 01:38:54;;;;;;;1.50;1.10;;;;;;;18.07;52.11;98061.03;105215;1260;60476;-38
2023/10/13 01:41:21;;;;;;;1.80;1.30;;;;;;;18.06;52.08;98061.71;105129;1257;60367;-37
2023/10/13 01:43:48;;;;;;;2.10;1.10;;;;;;;18.06;52.01;98062.02;105365;1256;73801;-37
2023/10/13 01:46:19;;;;;;;1.70;1.00;;;;;;;18.06;52.07;98060.00;105606;1260;66011;-39
2023/10/13 01:48:46;;;;;;;1.70;1.10;;;;;;;18.06;52.09;98060.70;106295;1260;72411;-39
2023/10/13 01:51:13;;;;;;;2.00;1.40;;;;;;;18.06;51.98;98066.21;105407;1261;60970;-39
2023/10/13 01:53:41;;;;;;;1.90;1.20;;;;;;;18.06;52.02;98066.88;105570;1262;61017;-40
2023/10/13 01:56:10;;;;;;;2.40;1.10;;;;;;;18.07;52.01;98069.77;105490;1262;73668;-39
2023/10/13 01:58:41;;;;;;;1.40;1.10;;;;;;;18.06;52.03;98071.85;105289;1263;65697;-37
2023/10/13 02:01:09;;;;;;;6.30;1.30;;;;;;;18.06;52.03;98074.71;105273;1259;71367;-37
2023/10/13 02:03:47;;;;;;;2.00;1.20;;;;;;;18.06;52.02;98076.58;105467;1262;60556;-36
2023/10/13 02:06:17;;;;;;;1.40;1.30;;;;;;;18.06;52.02;98080.36;105280;1257;60461;-37
2023/10/13 02:08:47;;;;;;;2.50;1.20;;;;;;;18.06;52.06;98081.52;105377;1258;73721;-37
2023/10/13 02:11:18;;;;;;;1.90;1.30;;;;;;;18.05;51.99;98077.64;105239;1262;65121;-37
2023/10/13 02:13:48;;;;;;;2.10;1.30;;;;;;;18.05;52.01;98082.13;105464;1257;72425;-37
2023/10/13 02:16:20;;;;;;;1.30;1.10;;;;;;;18.05;52.01;98081.48;105273;1263;60482;-37
2023/10/13 02:18:50;;;;;;;3.20;1.30;;;;;;;18.05;51.95;98081.48;105491;1258;60450;-39
2023/10/13 02:21:17;;;;;;;3.00;1.20;;;;;;;18.05;52.00;98084.73;105237;1257;73539;-37
2023/10/13 02:23:59;;;;;;;2.10;1.10;;;;;;;18.05;52.00;98084.29;105268;1263;65909;-37
2023/10/13 02:26:38;;;;;;;1.30;1.20;;;;;;;18.05;51.96;98089.33;105242;1257;72507;-36
2023/10/13 02:29:08;;;;;;;1.50;1.10;;;;;;;18.05;51.98;98088.21;105522;1262;60557;-36
2023/10/13 02:31:36;;;;;;;1.70;1.20;;;;;;;18.04;52.00;98083.79;105958;1257;60517;-36
2023/10/13 02:34:07;;;;;;;1.00;0.80;;;;;;;18.05;51.99;98087.35;105664;1258;74263;-36
2023/10/13 02:36:49;;;;;;;1.50;1.10;;;;;;;18.05;51.98;98090.86;105786;1257;65824;-39
2023/10/13 02:39:16;;;;;;;3.10;1.20;;;;;;;18.04;51.95;98089.76;105094;1262;72611;-36
2023/10/13 02:41:48;;;;;;;1.30;1.20;;;;;;;18.05;51.94;98091.31;105597;1262;60554;-37
2023/10/13 02:44:27;;;;;;;1.20;0.90;;;;;;;18.04;51.88;98095.25;105583;1258;60448;-37
2023/10/13 02:46:55;;;;;;;2.00;1.20;;;;;;;18.04;52.01;98096.48;105607;1257;73596;-37
2023/10/13 02:49:26;;;;;;;1.40;1.10;;;;;;;18.04;51.95;98097.03;105605;1262;65177;-37
2023/10/13 02:51:55;;;;;;;1.90;1.20;;;;;;;18.04;51.99;98091.99;105411;1257;72169;-37
2023/10/13 02:54:22;;;;;;;3.80;1.30;;;;;;;18.04;51.91;98092.30;105205;1262;60473;-37
2023/10/13 02:56:59;;;;;;;1.90;1.30;;;;;;;18.04;51.92;98090.92;105386;1257;60474;-37
2023/10/13 02:59:40;;;;;;;1.70;1.20;;;;;;;18.04;51.90;98096.88;105262;1260;74662;-36
2023/10/13 03:02:17;;;;;;;1.60;1.20;;;;;;;18.04;51.90;98096.02;105576;1262;65691;-38
2023/10/13 03:04:46;;;;;;;1.30;1.00;;;;;;;18.04;51.95;98099.49;105190;1257;72328;-37
2023/10/13 03:07:19;;;;;;;1.20;1.00;;;;;;;18.03;51.86;98098.10;105328;1263;61269;-36
2023/10/13 03:09:51;;;;;;;1.10;0.90;;;;;;;18.03;51.94;98097.23;105562;1262;61869;-36
2023/10/13 03:12:19;;;;;;;1.30;1.20;;;;;;;18.03;51.87;98093.36;105185;1257;73190;-38
2023/10/13 03:14:49;;;;;;;2.70;1.00;;;;;;;18.03;51.92;98089.27;105153;1262;65786;-37
2023/10/13 03:17:22;;;;;;;1.40;1.20;;;;;;;18.03;51.96;98091.11;105198;1257;73068;-39
2023/10/13 03:19:54;;;;;;;1.30;1.10;;;;;;;18.03;51.87;98090.47;105139;1257;61285;-39
2023/10/13 03:22:30;;;;;;;1.30;1.20;;;;;;;18.03;51.88;98092.19;105534;1262;61261;-39
2023/10/13 03:25:05;;;;;;;1.20;1.10;;;;;;;18.03;51.93;98096.98;105340;1259;74573;-38
2023/10/13 03:30:17;;;;;;;1.40;1.10;;;;;;;18.03;51.89;98099.63;105488;1257;73188;-36
2023/10/13 03:32:53;;;;;;;1.70;1.20;;;;;;;18.02;51.82;98103.61;105531;1262;61206;-37
2023/10/13 03:35:24;;;;;;;1.20;1.10;;;;;;;18.02;51.90;98099.02;105524;1257;61357;-37
2023/10/13 03:37:51;;;;;;;2.70;1.40;;;;;;;18.02;51.91;98100.89;105582;1258;74270;-37
2023/10/13 03:43:04;;;;;;;1.70;1.10;;;;;;;18.02;51.89;98104.45;105131;1257;72451;-37
2023/10/13 03:45:37;;;;;;;1.60;1.10;;;;;;;18.01;51.87;98103.12;105211;1261;61213;-37
2023/10/13 03:53:33;;;;;;;1.70;1.20;;;;;;;18.01;51.92;98106.76;105387;1262;65809;-37
2023/10/13 03:59:06;;;;;;;1.50;1.10;;;;;;;18.01;51.87;98105.14;105098;1260;61305;-37
2023/10/13 04:02:21;;;;;;;2.30;1.30;;;;;;;18.01;51.89;98110.77;105844;1259;61327;-37
2023/10/13 04:17:29;;;;;;;1.00;0.90;;;;;;;18.01;51.86;98119.98;105241;1258;73435;-40
2023/10/13 04:36:13;;;;;;;1.30;1.20;;;;;;;18.00;51.78;98145.82;106293;1260;72889;-37
2023/10/13 04:38:57;;;;;;;1.30;1.20;;;;;;;18.01;51.83;98140.96;105271;1262;61337;-38
2023/10/13 04:41:57;;;;;;;1.30;1.00;;;;;;;18.01;51.89;98147.63;106552;1259;60035;-36
2023/10/13 04:49:29;;;;;;;1.20;1.00;;;;;;;18.02;51.81;98158.73;106470;1258;72953;-37
2023/10/13 04:52:01;;;;;;;1.10;1.00;;;;;;;18.03;51.82;98162.73;105369;1262;61221;-38
2023/10/13 05:46:49;;;;;;;7.20;1.60;;;;;;;18.18;53.55;98196.40;105837;1262;61234;-38
2023/10/13 06:30:38;;;;;;;;;;;;;;;18.41;53.92;98273.36;104862;1262;61186;-40
2023/10/13 06:33:05;;;;;;;4.20;1.80;;;;;;;18.41;53.97;98271.84;105080;1264;75667;-37
2023/10/13 06:35:32;;;;;;;3.80;2.10;;;;;;;18.42;53.85;98273.41;105014;1264;66766;-40
2023/10/13 06:38:00;;;;;;;2.30;1.80;;;;;;;18.43;53.80;98273.12;105049;1262;72736;-39
2023/10/13 06:43:12;;;;;;;9.90;2.30;;;;;;;18.44;53.79;98278.91;104946;1262;61372;-37
2023/10/13 06:45:42;;;;;;;7.20;2.20;;;;;;;18.43;53.85;98284.01;104833;1267;75846;-40
2023/10/13 06:48:11;;;;;;;6.50;2.30;;;;;;;18.44;53.77;98282.79;105150;1262;66309;-39
2023/10/13 06:50:41;;;;;;;6.40;2.20;;;;;;;18.44;53.85;98282.78;104995;1263;72418;-38
2023/10/13 06:53:12;;;;;;;6.10;2.30;;;;;;;18.44;53.73;98279.91;104989;1265;61275;-40
2023/10/13 06:55:39;;;;;;;4.60;1.90;;;;;;;18.44;53.67;98281.16;105025;1260;61305;-38
2023/10/13 06:58:07;;;;;;;5.80;2.00;;;;;;;18.43;53.63;98291.59;105418;1262;73218;-38
2023/10/13 07:00:34;;;;;;;4.50;2.00;;;;;;;18.44;53.55;98297.34;104962;1264;66315;-38
2023/10/13 07:03:17;;;;;;;3.30;2.30;;;;;;;18.43;53.54;98298.02;104777;1261;72437;-38
2023/10/13 07:05:47;;;;;;;5.40;2.20;;;;;;;18.43;53.52;98301.27;104974;1265;61275;-39
2023/10/13 07:08:17;;;;;;;3.60;2.10;;;;;;;18.42;53.50;98301.46;105178;1262;61311;-38
2023/10/13 07:11:05;;;;;;;5.40;2.20;;;;;;;18.42;53.45;98300.13;104902;1264;74435;-39
2023/10/13 07:13:51;;;;;;;4.80;2.20;;;;;;;18.41;53.52;98301.20;104930;1265;66113;-38
2023/10/13 07:16:18;;;;;;;6.80;2.30;;;;;;;18.40;53.54;98302.95;105515;1262;72455;-37
2023/10/13 07:18:55;;;;;;;2.40;1.70;;;;;;;18.40;53.54;98304.41;104891;1264;61380;-37
2023/10/13 07:21:30;;;;;;;4.50;2.00;;;;;;;18.41;53.54;98302.80;104842;1262;61360;-39
2023/10/13 07:24:08;;;;;;;4.30;2.20;;;;;;;18.41;53.45;98304.54;108762;1261;74656;-40
2023/10/13 07:26:42;;;;;;;6.00;2.10;;;;;;;18.42;53.50;98303.69;108834;1261;64589;-39
2023/10/13 07:29:09;;;;;;;3.20;2.00;;;;;;;18.43;53.41;98303.50;106251;1262;72519;-40
2023/10/13 07:31:37;;;;;;;5.60;2.10;;;;;;;18.44;53.44;98305.50;105525;1262;61237;-39
2023/10/13 07:34:12;;;;;;;3.20;1.90;;;;;;;18.45;53.39;98305.48;105104;1262;61384;-39
2023/10/13 07:36:40;;;;;;;3.50;2.00;;;;;;;18.47;53.54;98304.92;105286;1262;75053;-39
2023/10/13 07:44:46;;;;;;;9.70;2.00;;;;;;;18.57;54.97;98310.48;104791;1259;71472;-42
2023/10/13 07:47:14;;;;;;;4.20;2.30;;;;;;;18.63;55.09;98310.89;105094;1268;61327;-49
2023/10/13 07:49:41;;;;;;;9.20;2.30;;;;;;;18.71;55.46;98312.89;104951;1262;61311;-50
2023/10/13 07:57:32;;;;;;;6.60;1.90;;;;;;;18.92;55.22;98330.14;104869;1262;65538;-51
2023/10/13 08:00:25;;;;;;;11.80;2.00;;;;;;;18.97;55.17;98334.10;105006;1262;71555;-48
2023/10/13 08:08:40;;;;;;;5.40;2.10;;;;;;;19.10;55.40;98348.21;104903;1265;76147;-49
2023/10/13 08:13:59;;;;;;;4.90;2.30;;;;;;;19.16;55.25;98342.17;104948;1262;72342;-49
2023/10/13 08:19:28;;;;;;;5.90;2.10;;;;;;;19.20;54.85;98344.80;104491;1262;61260;-49
2023/10/13 08:21:58;;;;;;;6.40;2.10;;;;;;;19.23;54.71;98346.83;105188;1265;74990;-49
2023/10/13 08:43:08;;;;;;;2.80;1.90;;;;;;;19.43;55.07;98363.92;104963;1265;61247;-49
2023/10/13 08:48:16;;;;;;;5.60;2.30;;;;;;;19.46;55.44;98360.88;105103;1262;182155;-46
2023/10/13 09:01:33;;;;;;;4.30;2.00;;;;;;;19.54;55.15;98359.07;108742;1260;75012;-52
2023/10/13 09:09:58;;;;;;;9.10;2.30;;;;;;;19.62;54.68;98352.80;105697;1266;61389;-50
2023/10/13 09:18:12;;;;;;;2.90;1.80;;;;;;;19.69;54.25;98343.39;105108;1265;66208;-47
2023/10/13 09:23:24;;;;;;;9.60;2.20;;;;;;;19.71;54.00;98335.84;105033;1265;61272;-49
2023/10/13 09:26:08;;;;;;;5.60;2.20;;;;;;;19.72;54.01;98329.05;104945;1263;61352;-50
2023/10/13 09:28:37;;;;;;;3.60;2.40;;;;;;;19.72;54.04;98325.79;104955;1262;74669;-49
2023/10/13 09:31:09;;;;;;;3.80;2.30;;;;;;;19.72;54.02;98326.71;104875;1265;67307;-61
2023/10/13 09:33:36;;;;;;;5.70;2.40;;;;;;;19.72;53.92;98324.31;104993;1263;72373;-49
2023/10/13 09:36:13;;;;;;;5.70;2.40;;;;;;;19.73;53.90;98320.91;105089;1265;61348;-50
2023/10/13 09:38:40;;;;;;;4.80;2.40;;;;;;;19.72;53.94;98321.36;105069;1262;61151;-50
2023/10/13 09:41:25;;;;;;;8.50;2.90;;;;;;;19.72;53.92;98320.21;104950;1265;74406;-45
2023/10/13 09:43:53;;;;;;;4.60;2.30;;;;;;;19.73;53.88;98319.21;105118;1265;67053;-44
2023/10/13 09:46:23;;;;;;;4.00;2.30;;;;;;;19.72;53.82;98324.48;104926;1261;72984;-47
2023/10/13 09:49:04;;;;;;;6.30;2.10;;;;;;;19.72;53.74;98325.17;105202;1264;61234;-46
2023/10/13 09:51:33;;;;;;;6.00;2.40;;;;;;;19.72;53.67;98327.52;105431;1260;61374;-46
2023/10/13 09:54:20;;;;;;;5.70;2.50;;;;;;;19.72;53.59;98328.42;104992;1262;75268;-47
2023/10/13 09:57:12;;;;;;;6.00;2.30;;;;;;;19.72;53.57;98328.77;104793;1265;66267;-47
2023/10/13 09:59:52;;;;;;;3.50;2.20;;;;;;;19.73;53.42;98325.98;104888;1263;70904;-45
2023/10/13 10:02:25;;;;;;;4.70;2.10;;;;;;;19.73;53.41;98319.54;104938;1265;61267;-48
2023/10/13 10:04:55;;;;;;;4.30;2.10;;;;;;;19.74;53.46;98318.56;104939;1262;61356;-46
2023/10/13 10:07:32;;;;;;;4.30;2.20;;;;;;;19.75;53.60;98317.02;104979;1263;74022;-48
2023/10/13 10:10:00;;;;;;;3.30;2.10;;;;;;;19.78;53.52;98315.58;105007;1263;66401;-47
2023/10/13 10:12:38;;;;;;;3.30;2.10;;;;;;;19.83;53.35;98322.70;105449;1265;72468;-51
2023/10/13 10:15:35;;;;;;;3.20;1.90;;;;;;;19.87;53.27;98327.71;106370;1264;61359;-44
2023/10/13 10:18:03;;;;;;;3.60;2.30;;;;;;;19.91;53.09;98324.75;105066;1262;61291;-46
2023/10/13 10:20:41;;;;;;;2.90;2.20;;;;;;;19.93;52.99;98325.44;105264;1265;74493;-47
2023/10/13 10:23:21;;;;;;;3.50;2.00;;;;;;;19.96;52.97;98318.98;105210;1265;67111;-48
2023/10/13 10:25:51;;;;;;;4.20;2.20;;;;;;;19.97;52.81;98316.85;105124;1262;72500;-48
2023/10/13 10:28:19;;;;;;;4.20;2.20;;;;;;;19.98;52.86;98317.49;105088;1265;61193;-46
2023/10/13 10:30:46;;;;;;;3.50;2.20;;;;;;;19.99;52.89;98319.39;105113;1263;61379;-46
2023/10/13 10:33:15;;;;;;;3.30;2.10;;;;;;;19.99;52.67;98318.00;105115;1264;75090;-46
2023/10/13 10:35:43;;;;;;;3.30;1.90;;;;;;;20.00;52.67;98313.35;104835;1265;65896;-47
2023/10/13 10:38:38;;;;;;;3.60;2.20;;;;;;;19.99;52.56;98310.32;105047;1259;72481;-47
2023/10/13 10:41:04;;;;;;;4.50;2.40;;;;;;;20.01;52.47;98309.88;104929;1264;61209;-45
2023/10/13 10:43:46;;;;;;;4.50;2.10;;;;;;;20.01;52.57;98304.61;105169;1262;61264;-48
2023/10/13 10:46:18;;;;;;;3.50;1.90;;;;;;;20.02;52.50;98305.33;105109;1265;74955;-46
2023/10/13 10:48:45;;;;;;;3.50;2.30;;;;;;;20.02;52.53;98311.64;105133;1265;66326;-47
2023/10/13 10:51:16;;;;;;;5.40;2.20;;;;;;;20.02;52.53;98315.67;105034;1263;72416;-48
2023/10/13 10:53:45;;;;;;;4.60;2.30;;;;;;;20.02;52.49;98317.31;105077;1262;61286;-47
2023/10/13 10:58:59;;;;;;;2.60;1.90;;;;;;;20.01;52.61;98311.37;104970;1262;74482;-47
2023/10/13 11:01:33;;;;;;;3.40;2.40;;;;;;;20.00;52.67;98305.77;104937;1264;67695;-47
2023/10/13 11:04:24;;;;;;;3.40;2.10;;;;;;;20.02;52.81;98307.90;104938;1264;72712;-47
2023/10/13 11:07:00;;;;;;;3.50;2.40;;;;;;;20.06;52.71;98307.46;105135;1264;61250;-48
2023/10/13 11:12:24;;;;;;;3.20;2.50;;;;;;;20.12;52.84;98295.38;104985;1265;74306;-49
2023/10/13 11:18:05;;;;;;;3.40;2.70;;;;;;;20.18;52.77;98288.17;104924;1263;71542;-50
2023/10/13 11:20:43;;;;;;;4.80;2.40;;;;;;;20.19;52.91;98292.19;105156;1264;61264;-47
2023/10/13 11:23:15;;;;;;;3.90;2.70;;;;;;;20.19;52.92;98291.85;104936;1267;61245;-48
2023/10/13 11:25:45;;;;;;;3.70;2.20;;;;;;;20.19;52.99;98288.75;105056;1265;76408;-49
2023/10/13 11:28:20;;;;;;;4.40;2.70;;;;;;;20.20;52.94;98287.38;105125;1265;65776;-49
2023/10/13 11:30:51;;;;;;;3.50;2.60;;;;;;;20.21;52.92;98289.02;105094;1265;72616;-51
2023/10/13 11:33:20;;;;;;;4.70;2.60;;;;;;;20.21;52.96;98284.63;105004;1274;61353;-48
2023/10/13 11:38:28;;;;;;;5.80;2.40;;;;;;;20.21;52.98;98290.13;104943;1263;75505;-52
2023/10/13 11:41:14;;;;;;;;;;;;;;;20.22;52.90;98286.36;104925;1272;64011;-46
2023/10/13 11:46:55;;;;;;;4.40;2.60;;;;;;;20.19;52.94;98277.72;108801;1262;60224;-48
2023/10/13 11:51:47;;;;;;;3.10;2.50;;;;;;;20.21;53.21;98282.84;104768;1265;75517;-48
2023/10/13 11:54:17;;;;;;;3.50;2.40;;;;;;;20.23;53.15;98280.98;108820;1262;64843;-48
2023/10/13 11:56:45;;;;;;;2.90;2.30;;;;;;;20.25;53.19;98273.27;107904;1263;74071;-50
2023/10/13 11:59:18;;;;;;;3.30;2.10;;;;;;;20.27;53.16;98272.15;104987;1274;61280;-48
2023/10/13 12:07:16;;;;;;;3.40;2.60;;;;;;;20.34;52.82;98277.08;105000;1265;64577;-49
2023/10/13 12:12:23;;;;;;;2.90;2.30;;;;;;;20.37;52.79;98266.44;104990;1265;61258;-49
2023/10/13 12:14:57;;;;;;;2.20;1.90;;;;;;;20.39;52.70;98262.70;105061;1261;61358;-46
2023/10/13 12:17:36;;;;;;;6.40;2.10;;;;;;;20.40;52.64;98267.23;105177;1262;74299;-49
2023/10/13 12:20:09;;;;;;;3.20;2.00;;;;;;;20.42;52.55;98267.13;105003;1268;64568;-53
2023/10/13 12:22:39;;;;;;;4.20;2.30;;;;;;;20.43;52.62;98265.77;104944;1265;73195;-46
2023/10/13 12:25:24;;;;;;;2.50;1.90;;;;;;;20.45;52.59;98258.42;104974;1265;61274;-47
2023/10/13 12:27:57;;;;;;;3.00;2.30;;;;;;;20.47;52.58;98251.54;106472;1265;61175;-47
2023/10/13 12:30:48;;;;;;;4.20;1.90;;;;;;;20.45;52.47;98255.02;105250;1261;74597;-47
2023/10/13 12:33:24;;;;;;;3.80;2.10;;;;;;;20.42;52.57;98254.77;105128;1265;66432;-47
2023/10/13 12:36:53;;;;;;;4.40;1.90;;;;;;;20.39;52.50;98248.48;107302;1265;72418;-47
2023/10/13 12:49:57;;;;;;;3.70;1.90;;;;;;;20.27;52.52;98242.15;104902;1265;72629;-47
2023/10/13 12:52:31;;;;;;;4.40;1.90;;;;;;;20.23;52.65;98243.76;104943;1265;61278;-46
2023/10/13 12:54:58;;;;;;;2.80;1.80;;;;;;;20.20;52.61;98237.81;105015;1261;61264;-46
2023/10/13 12:57:28;;;;;;;6.50;2.10;;;;;;;20.18;52.61;98240.31;105065;1265;74609;-46
2023/10/13 12:59:55;;;;;;;4.70;2.00;;;;;;;20.16;52.69;98237.77;105044;1265;67138;-46
2023/10/13 13:02:24;;;;;;;3.10;1.80;;;;;;;20.14;52.61;98230.41;105224;1265;73504;-47
2023/10/13 13:04:57;;;;;;;3.70;2.00;;;;;;;20.14;52.66;98228.38;106696;1267;61265;-48
2023/10/13 13:07:29;;;;;;;2.90;2.00;;;;;;;20.13;52.71;98230.85;105050;1264;61443;-47
2023/10/13 13:09:58;;;;;;;5.50;1.90;;;;;;;20.13;52.75;98230.77;105170;1265;75261;-47
2023/10/13 13:12:28;;;;;;;2.40;1.80;;;;;;;20.11;52.71;98236.33;105212;1265;67055;-47
2023/10/13 13:14:55;;;;;;;3.30;2.10;;;;;;;20.10;52.79;98235.66;105032;1272;73381;-45
2023/10/13 13:17:22;;;;;;;2.40;2.00;;;;;;;20.09;52.74;98235.23;105006;1265;61243;-45
2023/10/13 13:19:48;;;;;;;3.00;2.00;;;;;;;20.06;52.62;98236.96;105024;1265;61331;-46
2023/10/13 13:22:17;;;;;;;2.20;1.60;;;;;;;20.04;52.73;98233.33;104965;1268;74408;-45
2023/10/13 13:24:45;;;;;;;3.20;2.20;;;;;;;20.01;52.71;98233.08;105029;1265;67060;-48
2023/10/13 13:27:19;;;;;;;3.80;2.00;;;;;;;19.99;52.64;98233.54;104964;1268;72527;-46
2023/10/13 13:29:47;;;;;;;3.30;1.70;;;;;;;19.96;52.86;98232.69;104917;1268;61218;-46
2023/10/13 13:32:23;;;;;;;5.40;1.90;;;;;;;19.93;52.86;98228.73;104883;1264;61320;-46
2023/10/13 13:34:57;;;;;;;2.40;1.70;;;;;;;19.92;52.78;98226.67;105427;1267;74567;-46
2023/10/13 13:37:27;;;;;;;2.90;1.70;;;;;;;19.91;52.87;98222.23;104956;1264;67162;-45
2023/10/13 13:39:54;;;;;;;2.70;1.80;;;;;;;19.90;52.95;98224.67;105077;1266;73517;-45
2023/10/13 13:42:20;;;;;;;3.30;1.90;;;;;;;19.89;52.91;98223.40;107857;1265;61269;-48
2023/10/13 13:44:47;;;;;;;3.00;1.70;;;;;;;19.88;52.91;98221.84;104760;1267;61335;-46
2023/10/13 13:47:14;;;;;;;2.40;1.80;;;;;;;19.87;53.09;98225.77;104945;1266;74586;-45
2023/10/13 13:49:50;;;;;;;2.20;1.90;;;;;;;19.86;53.02;98224.56;104946;1265;66288;-45
2023/10/13 13:52:21;;;;;;;2.80;1.80;;;;;;;19.84;53.11;98218.30;104982;1275;72431;-45
2023/10/13 13:54:48;;;;;;;4.80;1.90;;;;;;;19.83;53.15;98220.83;105073;1267;61256;-46
2023/10/13 13:57:15;;;;;;;3.80;1.80;;;;;;;19.81;53.17;98219.13;105223;1264;61325;-46
2023/10/13 13:59:45;;;;;;;2.10;1.90;;;;;;;19.79;53.17;98220.39;105152;1266;74679;-46
2023/10/13 14:02:20;;;;;;;3.00;1.80;;;;;;;19.77;53.13;98217.08;104979;1274;66050;-45
2023/10/13 14:04:50;;;;;;;2.60;1.80;;;;;;;19.75;53.26;98210.66;105098;1265;72791;-46
2023/10/13 14:07:19;;;;;;;2.90;1.60;;;;;;;19.73;53.27;98209.98;105136;1266;62037;-46
2023/10/13 14:09:51;;;;;;;3.40;1.70;;;;;;;19.72;53.17;98215.06;105180;1274;61238;-45
2023/10/13 14:12:29;;;;;;;2.90;1.70;;;;;;;19.70;53.28;98213.86;105024;1268;75001;-45
2023/10/13 14:14:56;;;;;;;2.90;1.70;;;;;;;19.69;53.28;98209.08;105106;1264;64991;-46
2023/10/13 14:17:35;;;;;;;3.30;1.80;;;;;;;19.67;53.25;98206.01;105092;1265;72487;-47
2023/10/13 14:20:15;;;;;;;2.30;1.70;;;;;;;19.66;53.25;98205.20;105076;1274;61255;-45
2023/10/13 14:22:42;;;;;;;2.20;1.70;;;;;;;19.65;53.33;98201.89;105203;1264;61264;-46
2023/10/13 14:25:14;;;;;;;2.30;1.80;;;;;;;19.63;53.31;98200.13;105133;1264;74678;-45
2023/10/13 14:27:41;;;;;;;2.30;1.70;;;;;;;19.61;53.32;98200.25;105255;1265;65493;-45
2023/10/13 14:30:08;;;;;;;3.00;1.70;;;;;;;19.60;53.29;98197.64;105214;1265;72595;-45
2023/10/13 14:32:40;;;;;;;3.40;1.60;;;;;;;19.59;53.32;98198.15;105173;1266;61270;-45
2023/10/13 14:35:14;;;;;;;3.30;1.70;;;;;;;19.57;53.33;98198.39;104996;1265;61285;-45
2023/10/13 14:37:41;;;;;;;2.60;1.50;;;;;;;19.56;53.37;98194.17;104987;1265;74573;-46
2023/10/13 14:40:12;;;;;;;2.20;1.60;;;;;;;19.55;53.45;98194.60;105116;1261;66317;-46
2023/10/13 14:42:40;;;;;;;2.00;1.50;;;;;;;19.53;53.42;98197.50;105224;1265;72503;-46
2023/10/13 14:45:16;;;;;;;2.40;1.60;;;;;;;19.51;53.40;98199.56;105013;1265;61255;-46
2023/10/13 14:47:43;;;;;;;2.80;2.00;;;;;;;19.49;53.41;98199.11;105109;1261;61272;-46
2023/10/13 14:50:21;;;;;;;2.50;1.70;;;;;;;19.47;53.47;98189.96;105087;1265;74623;-46
2023/10/13 14:52:48;;;;;;;3.30;1.70;;;;;;;19.46;53.52;98188.13;105242;1265;66347;-45
2023/10/13 14:55:33;;;;;;;2.40;1.60;;;;;;;19.44;53.49;98187.92;105218;1260;72621;-45
2023/10/13 14:58:00;;;;;;;3.60;1.60;;;;;;;19.43;53.50;98185.87;105026;1266;61261;-45
2023/10/13 15:00:26;;;;;;;2.30;1.60;;;;;;;19.41;53.57;98179.38;104994;1265;61263;-45
2023/10/13 15:02:54;;;;;;;2.70;1.90;;;;;;;19.39;53.61;98184.04;105117;1267;74477;-46
2023/10/13 15:05:21;;;;;;;3.10;1.40;;;;;;;19.38;53.51;98185.34;105054;1268;65501;-46
2023/10/13 15:07:47;;;;;;;3.10;1.70;;;;;;;19.37;53.66;98186.16;105036;1260;73529;-45
2023/10/13 15:10:15;;;;;;;1.80;1.40;;;;;;;19.36;53.57;98191.15;104979;1267;61251;-45
2023/10/13 15:12:45;;;;;;;3.30;1.40;;;;;;;19.34;53.70;98190.55;105171;1261;61293;-46
2023/10/13 15:15:19;;;;;;;1.80;1.40;;;;;;;19.33;53.70;98195.23;105195;1264;74471;-46
2023/10/13 15:17:46;;;;;;;1.60;1.30;;;;;;;19.31;53.67;98195.64;105058;1266;65539;-46
2023/10/13 15:20:18;;;;;;;1.60;1.30;;;;;;;19.29;53.75;98193.56;105178;1260;72633;-46
2023/10/13 15:22:48;;;;;;;1.90;1.50;;;;;;;19.28;53.79;98194.77;105122;1266;61274;-45
2023/10/13 15:25:28;;;;;;;1.60;1.30;;;;;;;19.26;53.79;98197.91;105191;1260;61272;-45
2023/10/13 15:28:02;;;;;;;2.50;1.60;;;;;;;19.25;53.81;98195.15;105050;1264;74416;-46
2023/10/13 15:30:44;;;;;;;2.10;1.60;;;;;;;19.23;53.84;98197.58;105183;1265;66124;-44
2023/10/13 15:33:13;;;;;;;1.50;1.40;;;;;;;19.22;53.76;98196.92;105075;1261;72541;-44
2023/10/13 15:35:42;;;;;;;2.00;1.40;;;;;;;19.21;53.80;98192.91;105095;1267;61258;-44
2023/10/13 15:38:12;;;;;;;2.40;1.50;;;;;;;19.19;53.77;98191.73;104992;1261;61296;-45
2023/10/13 15:40:45;;;;;;;1.90;1.50;;;;;;;19.18;53.91;98187.87;105002;1272;74653;-45
2023/10/13 15:43:12;;;;;;;1.80;1.30;;;;;;;19.17;53.91;98183.96;104935;1265;64966;-44
2023/10/13 15:45:39;;;;;;;1.70;1.30;;;;;;;19.15;53.82;98180.81;104977;1261;72648;-45
2023/10/13 15:48:07;;;;;;;1.70;1.60;;;;;;;19.13;53.91;98183.72;105046;1264;61354;-45
2023/10/13 15:50:39;;;;;;;2.30;1.30;;;;;;;19.12;53.96;98185.61;105950;1261;61274;-45
2023/10/13 15:53:07;;;;;;;1.50;1.30;;;;;;;19.11;54.03;98184.67;106166;1261;73435;-43
2023/10/13 15:55:36;;;;;;;1.90;1.50;;;;;;;19.10;53.92;98192.14;105080;1264;66296;-46
2023/10/13 15:58:08;;;;;;;2.50;1.30;;;;;;;19.10;53.97;98194.39;105090;1265;71354;-44
2023/10/13 16:00:35;;;;;;;2.50;1.40;;;;;;;19.10;53.81;98198.73;105102;1269;61285;-45